Thunder radar more information blitzortung!


Radar de pluja more information rain snow radar


Visita la nostra xarxa de llocs de meteo:

Template documentation
and downloads

And another site



No particular awareness of the weather is required.    There are no Weather-warnings

Pagina Historial Weather Underground text

Diari Resum Marc 6, 2016 Unitats:  Mètric    Imperial   Tant
« Previous Dia
SegĂźent Dia »
Diari Setmana Mensual Anual Personalitzada
  Maxima: Minima: Media:
Temperatura: 15.8 °C 7.3 °C 11.4 °C
Punt de rosada: 2.2 °C -6.1 °C -2.6 °C
Humitat: 52 % 24 % 39 %
Wind Speed: 16.7 km/h 0.0 km/h 6.8 km/h
RĂ fegues de vent: 16.7 km/h - -
Vent:- - SSW
Pression baro: 1010.0 hPa 1007.0 hPa -
Precipitacions: 0.0 mm    
Historical Graphs
 
 
Dades de taula per Marc 6, 2016
Temps Temperatura Punt de rosada Pression baro Vent Wind Speed RĂ fegues de vent Humitat Rainfall Rate (Hourly)
11:19 9.6 °C 0.2 °C 1010.0 hPa NE 7.4 km/h 7.4 km/h 52 % 0.0 mm
11:24 9.8 °C 0.4 °C 1010.0 hPa ESE 3.9 km/h 3.9 km/h 52 % 0.0 mm
11:29 10.4 °C 0.9 °C 1009.0 hPa SSW 6.9 km/h 6.9 km/h 52 % 0.0 mm
11:34 10.6 °C 1.2 °C 1009.0 hPa SW 5.8 km/h 5.8 km/h 52 % 0.0 mm
11:39 11.1 °C 1.3 °C 1009.0 hPa West 7.4 km/h 7.4 km/h 51 % 0.0 mm
11:44 11.3 °C 1.5 °C 1009.0 hPa WNW 11.1 km/h 11.1 km/h 51 % 0.0 mm
11:49 11.4 °C 1.6 °C 1009.0 hPa WNW 5.6 km/h 5.6 km/h 51 % 0.0 mm
11:54 11.5 °C 1.7 °C 1009.0 hPa SSW 9.3 km/h 9.3 km/h 51 % 0.0 mm
11:59 11.8 °C 1.7 °C 1009.0 hPa NE 14.8 km/h 14.8 km/h 50 % 0.0 mm
12:04 11.2 °C 1.2 °C 1009.0 hPa ENE 11.1 km/h 11.1 km/h 50 % 0.0 mm
12:09 11.2 °C 1.2 °C 1009.0 hPa SSW 3.7 km/h 3.7 km/h 50 % 0.0 mm
12:14 11.8 °C 1.7 °C 1009.0 hPa SSW 7.4 km/h 7.4 km/h 50 % 0.0 mm
12:19 12.3 °C 2.2 °C 1009.0 hPa WSW 10.0 km/h 10.0 km/h 50 % 0.0 mm
12:24 12.5 °C 2.1 °C 1009.0 hPa SW 5.6 km/h 5.6 km/h 49 % 0.0 mm
12:29 12.4 °C 1.1 °C 1009.0 hPa WNW 11.1 km/h 11.1 km/h 46 % 0.0 mm
12:34 12.7 °C 1.7 °C 1009.0 hPa NNE 7.4 km/h 7.4 km/h 47 % 0.0 mm
12:39 12.8 °C 1.2 °C 1009.0 hPa NNW 11.1 km/h 11.1 km/h 45 % 0.0 mm
12:44 12.4 °C 0.8 °C 1010.0 hPa NNE 9.3 km/h 9.3 km/h 45 % 0.0 mm
12:49 12.6 °C 0.3 °C 1010.0 hPa WNW 9.3 km/h 9.3 km/h 43 % 0.0 mm
12:59 13.6 °C 0.9 °C 1009.0 hPa NNW 11.9 km/h 11.9 km/h 42 % 0.0 mm
13:04 14.0 °C 1.3 °C 1009.0 hPa WNW 5.6 km/h 5.6 km/h 42 % 0.0 mm
13:09 14.2 °C 1.1 °C 1009.0 hPa WNW 7.4 km/h 7.4 km/h 41 % 0.0 mm
13:14 13.8 °C -0.7 °C 1009.0 hPa NE 11.1 km/h 11.1 km/h 37 % 0.0 mm
13:19 13.7 °C -0.7 °C 1009.0 hPa WNW 9.0 km/h 9.0 km/h 37 % 0.0 mm
13:24 13.6 °C -1.2 °C 1009.0 hPa SW 7.4 km/h 7.4 km/h 36 % 0.0 mm
13:29 13.8 °C -1.1 °C 1009.0 hPa West 9.5 km/h 9.5 km/h 36 % 0.0 mm
13:34 13.8 °C -2.2 °C 1009.0 hPa WNW 3.7 km/h 3.7 km/h 33 % 0.0 mm
13:39 14.3 °C -2.2 °C 1009.0 hPa South 13.0 km/h 13.0 km/h 32 % 0.0 mm
13:49 14.7 °C -2.3 °C 1008.0 hPa North 11.1 km/h 11.1 km/h 31 % 0.0 mm
13:54 14.5 °C -2.4 °C 1008.0 hPa WNW 7.4 km/h 7.4 km/h 31 % 0.0 mm
13:59 14.7 °C -2.3 °C 1008.0 hPa WNW 9.3 km/h 9.3 km/h 31 % 0.0 mm
14:04 14.6 °C -2.8 °C 1008.0 hPa NE 9.7 km/h 9.7 km/h 30 % 0.0 mm
14:09 14.4 °C -3.0 °C 1008.0 hPa NE 9.3 km/h 9.3 km/h 30 % 0.0 mm
14:14 14.9 °C -2.1 °C 1008.0 hPa SW 9.3 km/h 9.3 km/h 31 % 0.0 mm
14:19 14.9 °C -2.6 °C 1008.0 hPa NNE 5.6 km/h 5.6 km/h 30 % 0.0 mm
14:24 15.0 °C -2.4 °C 1008.0 hPa West 9.3 km/h 9.3 km/h 30 % 0.0 mm
14:29 15.1 °C -2.4 °C 1008.0 hPa West 3.7 km/h 3.9 km/h 30 % 0.0 mm
14:34 15.2 °C -3.2 °C 1008.0 hPa WSW 14.8 km/h 14.8 km/h 28 % 0.0 mm
14:39 15.7 °C -1.8 °C 1008.0 hPa NNW 9.3 km/h 9.3 km/h 30 % 0.0 mm
14:44 15.6 °C -2.9 °C 1008.0 hPa NNE 11.1 km/h 11.1 km/h 28 % 0.0 mm
14:49 15.5 °C -3.4 °C 1008.0 hPa SE 9.3 km/h 9.3 km/h 27 % 0.0 mm
14:54 15.7 °C -3.3 °C 1008.0 hPa ENE 9.3 km/h 9.3 km/h 27 % 0.0 mm
14:59 15.8 °C -2.7 °C 1008.0 hPa NNW 5.8 km/h 5.8 km/h 28 % 0.0 mm
15:04 15.6 °C -3.9 °C 1008.0 hPa WSW 16.7 km/h 16.7 km/h 26 % 0.0 mm
15:09 15.6 °C -4.4 °C 1008.0 hPa West 7.4 km/h 7.4 km/h 25 % 0.0 mm
15:14 15.4 °C -4.6 °C 1008.0 hPa WNW 7.4 km/h 7.4 km/h 25 % 0.0 mm
15:19 15.2 °C -4.7 °C 1008.0 hPa NNE 6.1 km/h 6.1 km/h 25 % 0.0 mm
15:24 15.1 °C -5.3 °C 1008.0 hPa WNW 13.0 km/h 13.0 km/h 24 % 0.0 mm
15:29 14.9 °C -5.5 °C 1007.0 hPa West 16.7 km/h 16.7 km/h 24 % 0.0 mm
15:34 14.6 °C -5.8 °C 1007.0 hPa SSE 5.6 km/h 5.6 km/h 24 % 0.0 mm
15:44 14.3 °C -6.1 °C 1008.0 hPa SW 5.6 km/h 5.6 km/h 24 % 0.0 mm
15:49 14.3 °C -5.5 °C 1008.0 hPa WSW 5.6 km/h 5.6 km/h 25 % 0.0 mm
15:54 14.4 °C -4.9 °C 1008.0 hPa WNW 5.6 km/h 5.6 km/h 26 % 0.0 mm
15:59 14.2 °C -5.1 °C 1008.0 hPa NNE 7.4 km/h 7.4 km/h 26 % 0.0 mm
16:04 14.1 °C -4.7 °C 1008.0 hPa WNW 7.2 km/h 7.2 km/h 27 % 0.0 mm
16:09 14.4 °C -4.4 °C 1008.0 hPa West 5.6 km/h 5.6 km/h 27 % 0.0 mm
16:14 14.7 °C -4.1 °C 1008.0 hPa WSW 9.3 km/h 9.3 km/h 27 % 0.0 mm
16:24 14.1 °C -5.2 °C 1008.0 hPa West 9.3 km/h 9.3 km/h 26 % 0.0 mm
16:29 13.9 °C -4.8 °C 1008.0 hPa WSW 7.4 km/h 7.4 km/h 27 % 0.0 mm
16:34 14.3 °C -4.5 °C 1008.0 hPa WNW 9.3 km/h 9.3 km/h 27 % 0.0 mm
16:39 14.0 °C -4.7 °C 1008.0 hPa SW 9.7 km/h 9.7 km/h 27 % 0.0 mm
16:44 13.6 °C -5.1 °C 1008.0 hPa West 9.3 km/h 9.3 km/h 27 % 0.0 mm
16:49 14.3 °C -4.0 °C 1008.0 hPa WSW 7.9 km/h 7.9 km/h 28 % 0.0 mm
16:54 14.3 °C -4.5 °C 1008.0 hPa WSW 13.0 km/h 13.0 km/h 27 % 0.0 mm
16:59 13.6 °C -5.1 °C 1008.0 hPa WSW 3.7 km/h 3.7 km/h 27 % 0.0 mm
17:04 13.5 °C -4.7 °C 1008.0 hPa SW 3.7 km/h 3.7 km/h 28 % 0.0 mm
17:09 13.2 °C -4.9 °C 1008.0 hPa WSW 7.4 km/h 7.4 km/h 28 % 0.0 mm
17:14 12.9 °C -5.2 °C 1008.0 hPa WSW 5.6 km/h 5.6 km/h 28 % 0.0 mm
17:19 12.8 °C -5.3 °C 1008.0 hPa WSW 3.9 km/h 3.9 km/h 28 % 0.0 mm
17:24 12.6 °C -5.0 °C 1008.0 hPa SW 3.7 km/h 3.7 km/h 29 % 0.0 mm
17:29 12.5 °C -5.1 °C 1008.0 hPa West 3.7 km/h 3.7 km/h 29 % 0.0 mm
17:34 12.3 °C -5.3 °C 1008.0 hPa WSW 9.3 km/h 9.3 km/h 29 % 0.0 mm
17:39 12.2 °C -5.3 °C 1008.0 hPa WSW 7.4 km/h 7.4 km/h 29 % 0.0 mm
17:44 12.1 °C -5.4 °C 1008.0 hPa SW 7.4 km/h 7.4 km/h 29 % 0.0 mm
17:49 11.9 °C -5.6 °C 1008.0 hPa WNW 9.3 km/h 9.3 km/h 29 % 0.0 mm
17:54 11.7 °C -5.3 °C 1008.0 hPa WSW 9.3 km/h 9.3 km/h 30 % 0.0 mm
17:59 11.1 °C -5.0 °C 1010.0 hPa SSE 7.6 km/h 7.6 km/h 32 % 0.0 mm
18:04 10.3 °C -4.5 °C 1010.0 hPa SSE 7.6 km/h 7.6 km/h 35 % 0.0 mm
18:09 9.5 °C -2.5 °C 1010.0 hPa SW 5.6 km/h 6.4 km/h 43 % 0.0 mm
18:14 9.7 °C -2.3 °C 1009.0 hPa SW 3.7 km/h 3.7 km/h 43 % 0.0 mm
18:19 9.8 °C -1.9 °C 1009.0 hPa WSW 2.3 km/h   44 % 0.0 mm
18:24 9.4 °C -1.7 °C 1009.0 hPa WSW 4.7 km/h 4.7 km/h 46 % 0.0 mm
18:29 9.3 °C -1.7 °C 1009.0 hPa SW 4.7 km/h   46 % 0.0 mm
18:34 9.2 °C -1.8 °C 1009.0 hPa WSW 4.2 km/h 4.2 km/h 46 % 0.0 mm
18:44 9.0 °C -2.0 °C 1008.0 hPa WSW 3.7 km/h 3.7 km/h 46 % 0.0 mm
18:49 8.9 °C -2.1 °C 1008.0 hPa WSW 4.2 km/h 4.2 km/h 46 % 0.0 mm
18:54 9.2 °C -1.8 °C 1008.0 hPa WSW 3.7 km/h 3.9 km/h 46 % 0.0 mm
19:04 9.5 °C -1.8 °C 1009.0 hPa WNW 5.6 km/h 5.6 km/h 45 % 0.0 mm
19:09 9.8 °C -1.6 °C 1009.0 hPa West 9.3 km/h 9.3 km/h 45 % 0.0 mm
19:14 9.8 °C -1.6 °C 1009.0 hPa WSW 9.3 km/h 9.3 km/h 45 % 0.0 mm
19:19 9.9 °C -1.8 °C 1009.0 hPa WSW 7.4 km/h 7.4 km/h 44 % 0.0 mm
19:24 10.0 °C -1.7 °C 1009.0 hPa WSW 6.4 km/h 6.4 km/h 44 % 0.0 mm
19:29 10.0 °C -1.7 °C 1009.0 hPa WNW 9.3 km/h 9.3 km/h 44 % 0.0 mm
19:34 10.0 °C -1.7 °C 1009.0 hPa WSW 5.8 km/h 5.8 km/h 44 % 0.0 mm
19:39 9.9 °C -1.8 °C 1009.0 hPa ENE 6.1 km/h 6.1 km/h 44 % 0.0 mm
19:44 9.8 °C -1.9 °C 1009.0 hPa NNE 5.6 km/h 6.1 km/h 44 % 0.0 mm
19:49 9.7 °C -2.3 °C 1009.0 hPa NW 2.6 km/h 3.2 km/h 43 % 0.0 mm
19:54 9.7 °C -2.3 °C 1009.0 hPa NNE 7.4 km/h 7.4 km/h 43 % 0.0 mm
19:59 9.7 °C -2.3 °C 1010.0 hPa WSW 7.4 km/h 7.4 km/h 43 % 0.0 mm
20:04 9.7 °C -2.3 °C 1010.0 hPa West 5.6 km/h 5.6 km/h 43 % 0.0 mm
20:09 9.7 °C -2.3 °C 1010.0 hPa SSW 7.4 km/h 7.4 km/h 43 % 0.0 mm
20:14 9.7 °C -2.3 °C 1009.0 hPa SE 9.3 km/h 9.3 km/h 43 % 0.0 mm
20:19 9.6 °C -2.4 °C 1009.0 hPa WNW 7.4 km/h 7.4 km/h 43 % 0.0 mm
20:24 9.5 °C -2.5 °C 1009.0 hPa WNW 3.2 km/h 3.2 km/h 43 % 0.0 mm
20:29 9.4 °C -2.6 °C 1010.0 hPa NW 5.8 km/h 5.8 km/h 43 % 0.0 mm
20:34 9.4 °C -2.6 °C 1010.0 hPa SW 7.6 km/h 7.6 km/h 43 % 0.0 mm
20:39 9.4 °C -2.6 °C 1010.0 hPa WSW 7.4 km/h 7.4 km/h 43 % 0.0 mm
20:44 9.4 °C -2.6 °C 1010.0 hPa WSW 7.4 km/h 7.4 km/h 43 % 0.0 mm
20:49 9.1 °C -2.8 °C 1010.0 hPa WNW 3.9 km/h 3.9 km/h 43 % 0.0 mm
20:54 9.0 °C -2.6 °C 1010.0 hPa ENE 3.7 km/h 3.7 km/h 44 % 0.0 mm
20:59 9.0 °C -2.6 °C 1010.0 hPa WSW 5.8 km/h 5.8 km/h 44 % 0.0 mm
21:09 8.8 °C -2.8 °C 1010.0 hPa ENE 9.3 km/h 9.3 km/h 44 % 0.0 mm
21:14 8.8 °C -2.8 °C 1010.0 hPa ESE 3.7 km/h   44 % 0.0 mm
21:19 8.7 °C -2.9 °C 1010.0 hPa WSW 5.8 km/h 5.8 km/h 44 % 0.0 mm
21:24 8.7 °C -2.9 °C 1010.0 hPa NE 5.6 km/h 5.6 km/h 44 % 0.0 mm
21:29 8.6 °C -3.0 °C 1010.0 hPa NE 4.2 km/h 4.2 km/h 44 % 0.0 mm
21:34 8.5 °C -3.1 °C 1010.0 hPa NNE 7.4 km/h 7.4 km/h 44 % 0.0 mm
21:39 8.4 °C -2.9 °C 1010.0 hPa NNW 7.4 km/h 7.4 km/h 45 % 0.0 mm
21:45 8.3 °C -2.9 °C 1010.0 hPa NE 1.6 km/h 4.8 km/h 45 % 0.0 mm
21:50 8.2 °C -3.3 °C 1010.0 hPa WNW 2.6 km/h   44 % 0.0 mm
21:55 8.1 °C -3.1 °C 1010.0 hPa Calm     45 % 0.0 mm
22:00 8.0 °C -3.2 °C 1010.0 hPa WSW 1.9 km/h   45 % 0.0 mm
22:05 7.9 °C -3.3 °C 1010.0 hPa Calm     45 % 0.0 mm
22:10 7.9 °C -3.3 °C 1010.0 hPa SW 5.3 km/h 5.3 km/h 45 % 0.0 mm
22:15 7.9 °C -3.3 °C 1010.0 hPa WSW 1.6 km/h 4.8 km/h 45 % 0.0 mm
22:20 7.8 °C -3.4 °C 1010.0 hPa WSW 5.6 km/h 5.6 km/h 45 % 0.0 mm
22:25 7.7 °C -3.5 °C 1010.0 hPa WSW 3.7 km/h 3.7 km/h 45 % 0.0 mm
22:30 7.6 °C -3.3 °C 1009.0 hPa NW 1.6 km/h 3.2 km/h 46 % 0.0 mm
22:35 7.5 °C -3.4 °C 1009.0 hPa NNE 5.6 km/h 5.6 km/h 46 % 0.0 mm
22:40 7.4 °C -3.5 °C 1009.0 hPa ENE 2.3 km/h 2.6 km/h 46 % 0.0 mm
22:45 7.4 °C -3.5 °C 1009.0 hPa NNE 4.2 km/h 4.2 km/h 46 % 0.0 mm
22:50 7.4 °C -3.5 °C 1009.0 hPa WSW 3.9 km/h 3.9 km/h 46 % 0.0 mm
22:55 7.4 °C -3.5 °C 1009.0 hPa SW 5.0 km/h 5.0 km/h 46 % 0.0 mm
23:00 7.4 °C -3.5 °C 1009.0 hPa West 4.7 km/h 4.7 km/h 46 % 0.0 mm
23:05 7.4 °C -3.5 °C 1009.0 hPa NNE 3.7 km/h 3.7 km/h 46 % 0.0 mm
23:10 7.4 °C -3.2 °C 1009.0 hPa NNW 5.6 km/h 5.6 km/h 47 % 0.0 mm
23:15 7.4 °C -3.2 °C 1009.0 hPa SW 3.9 km/h 3.9 km/h 47 % 0.0 mm
23:20 7.3 °C -3.3 °C 1009.0 hPa West 1.9 km/h   47 % 0.0 mm
23:25 7.3 °C -3.3 °C 1009.0 hPa ENE 3.9 km/h 3.9 km/h 47 % 0.0 mm
Meteo Sesrovires
Elogis d' Weather Underground - 3.25 mb

Guio original per  Jim McMurry - jmcmurry@mwt.net Adaptat per a la plantilla per  Wim van der Kuil - Leuven-Template.eu

Trobareu la nostra informacio del temps tambe a:

Weather Underground

AWEKAS